Time;durP1;ratioP1;P1;durP2;ratioP2;P2;SDS_P1;SDS_P2;PMS_P1;PMS_P2;Temp;Humidity;BMP_temperature;BMP_pressure;BME280_temperature;BME280_humidity;BME280_pressure;Samples;Min_cycle;Max_cycle;Signal;HPM_P1;HPM_P2
2022/11/07 00:01:11;;;;;;;4.47;3.53;;;;;;;;;;5036619;28;20180;-80
2022/11/07 00:03:37;;;;;;;4.43;3.93;;;;;;;;;;5070800;28;20181;-79
2022/11/07 00:06:04;;;;;;;4.73;4.07;;;;;;;;;;5068859;28;20212;-79
2022/11/07 00:08:33;;;;;;;5.57;4.13;;;;;;;;;;5069769;28;20261;-81
2022/11/07 00:11:00;;;;;;;5.90;4.10;;;;;;;;;;5078405;28;20224;-81
2022/11/07 00:13:26;;;;;;;4.20;3.67;;;;;;;;;;5082784;28;20169;-80
2022/11/07 00:15:59;;;;;;;5.47;3.93;;;;;;;;;;5087786;28;20204;-81
2022/11/07 00:18:25;;;;;;;5.50;3.73;;;;;;;;;;5051494;28;20188;-79
2022/11/07 00:20:51;;;;;;;4.70;3.53;;;;;;;;;;5076998;28;20647;-80
2022/11/07 00:23:17;;;;;;;4.60;3.77;;;;;;;;;;5080821;28;20644;-80
2022/11/07 00:25:44;;;;;;;6.47;3.63;;;;;;;;;;5074065;28;20736;-80
2022/11/07 00:28:10;;;;;;;5.70;3.80;;;;;;;;;;5079926;28;20205;-82
2022/11/07 00:30:36;;;;;;;4.20;3.80;;;;;;;;;;5056565;28;20185;-78
2022/11/07 00:33:02;;;;;;;4.07;3.30;;;;;;;;;;5054847;28;20201;-79
2022/11/07 00:35:28;;;;;;;3.57;3.20;;;;;;;;;;5054565;28;20209;-79
2022/11/07 00:37:55;;;;;;;6.53;3.80;;;;;;;;;;5055430;28;20180;-78
2022/11/07 00:40:21;;;;;;;5.23;3.50;;;;;;;;;;5065702;28;20672;-78
2022/11/07 00:42:47;;;;;;;4.60;3.37;;;;;;;;;;5059406;28;20273;-79
2022/11/07 00:45:13;;;;;;;4.63;3.30;;;;;;;;;;5073993;28;20201;-79
2022/11/07 00:47:40;;;;;;;6.17;3.70;;;;;;;;;;5063468;28;20213;-79
2022/11/07 00:50:06;;;;;;;6.03;3.63;;;;;;;;;;5072318;28;20204;-79
2022/11/07 00:52:33;;;;;;;4.93;3.53;;;;;;;;;;5080665;28;20184;-79
2022/11/07 00:54:59;;;;;;;5.27;3.83;;;;;;;;;;5067231;28;20200;-79
2022/11/07 00:57:25;;;;;;;4.47;3.20;;;;;;;;;;5067469;28;20185;-79
2022/11/07 00:59:51;;;;;;;3.90;3.03;;;;;;;;;;5067626;28;20203;-79
2022/11/07 01:02:17;;;;;;;5.83;3.50;;;;;;;;;;5066077;28;20227;-79
2022/11/07 01:07:28;;;;;;;3.97;3.30;;;;;;;;;;5047399;28;20205;-79
2022/11/07 01:09:54;;;;;;;4.43;3.23;;;;;;;;;;5066420;28;20675;-79
2022/11/07 01:12:20;;;;;;;4.73;3.50;;;;;;;;;;5076095;28;20181;-79
2022/11/07 01:14:46;;;;;;;6.23;3.87;;;;;;;;;;5067812;28;20205;-79
2022/11/07 01:17:12;;;;;;;4.50;3.63;;;;;;;;;;5062397;28;20847;-79
2022/11/07 01:19:38;;;;;;;5.37;3.30;;;;;;;;;;5071682;28;20191;-78
2022/11/07 01:22:04;;;;;;;3.57;2.97;;;;;;;;;;5067460;28;20180;-79
2022/11/07 01:24:31;;;;;;;3.80;3.07;;;;;;;;;;5049435;28;20216;-79
2022/11/07 01:26:57;;;;;;;4.57;3.00;;;;;;;;;;5067666;28;20200;-79
2022/11/07 01:29:23;;;;;;;3.70;3.20;;;;;;;;;;5067911;28;20341;-79
2022/11/07 01:31:49;;;;;;;4.70;3.22;;;;;;;;;;5072846;28;21075;-77
2022/11/07 01:34:16;;;;;;;4.73;3.00;;;;;;;;;;5081411;28;20216;-78
2022/11/07 01:36:43;;;;;;;3.33;3.03;;;;;;;;;;5058913;28;20188;-79
2022/11/07 01:39:09;;;;;;;2.90;2.60;;;;;;;;;;5065555;28;20189;-79
2022/11/07 01:41:36;;;;;;;3.60;2.83;;;;;;;;;;5052882;28;20192;-79
2022/11/07 01:44:05;;;;;;;3.50;3.17;;;;;;;;;;5087342;28;20200;-78
2022/11/07 01:46:36;;;;;;;3.70;2.80;;;;;;;;;;5054728;28;20192;-78
2022/11/07 01:49:08;;;;;;;4.07;3.10;;;;;;;;;;5055524;28;20212;-78
2022/11/07 01:51:43;;;;;;;4.23;3.00;;;;;;;;;;5066850;28;20166;-78
2022/11/07 01:54:10;;;;;;;3.30;3.00;;;;;;;;;;5067237;28;20292;-78
2022/11/07 01:56:38;;;;;;;3.73;3.00;;;;;;;;;;5067238;28;20182;-78
2022/11/07 01:59:04;;;;;;;4.73;2.97;;;;;;;;;;5084148;28;20181;-79
2022/11/07 02:01:31;;;;;;;4.43;3.07;;;;;;;;;;5077708;28;20180;-79
2022/11/07 02:03:58;;;;;;;3.60;3.07;;;;;;;;;;5067405;28;20204;-78
2022/11/07 02:06:29;;;;;;;5.37;3.57;;;;;;;;;;5065241;28;20185;-78
2022/11/07 02:08:55;;;;;;;6.27;4.20;;;;;;;;;;5067107;28;20184;-78
2022/11/07 02:11:22;;;;;;;4.90;3.70;;;;;;;;;;5077930;28;20192;-78
2022/11/07 02:13:48;;;;;;;6.13;3.60;;;;;;;;;;5059953;28;20182;-79
2022/11/07 02:16:14;;;;;;;3.90;3.30;;;;;;;;;;5066628;28;20191;-80
2022/11/07 02:18:41;;;;;;;5.10;3.23;;;;;;;;;;5054267;28;20184;-79
2022/11/07 02:21:13;;;;;;;3.70;3.33;;;;;;;;;;5066874;28;20181;-78
2022/11/07 02:23:41;;;;;;;3.53;3.07;;;;;;;;;;5066917;28;20665;-79
2022/11/07 02:26:08;;;;;;;3.27;2.90;;;;;;;;;;5067840;28;20753;-78
2022/11/07 02:28:36;;;;;;;4.03;2.93;;;;;;;;;;5070778;28;20201;-79
2022/11/07 02:31:02;;;;;;;4.47;3.10;;;;;;;;;;5059475;28;20194;-78
2022/11/07 02:33:28;;;;;;;3.23;2.93;;;;;;;;;;5074668;28;20184;-78
2022/11/07 02:35:54;;;;;;;4.40;3.30;;;;;;;;;;5069579;28;20204;-78
2022/11/07 02:38:32;;;;;;;5.07;3.40;;;;;;;;;;5070266;28;20174;-78
2022/11/07 02:41:04;;;;;;;6.43;3.10;;;;;;;;;;5061586;28;20226;-78
2022/11/07 02:43:32;;;;;;;3.93;3.50;;;;;;;;;;5070098;28;20189;-78
2022/11/07 02:45:59;;;;;;;3.27;2.77;;;;;;;;;;5066588;28;20185;-78
2022/11/07 02:48:29;;;;;;;3.60;2.90;;;;;;;;;;5062270;28;20201;-78
2022/11/07 02:50:56;;;;;;;3.70;3.03;;;;;;;;;;5069969;28;20667;-79
2022/11/07 02:53:22;;;;;;;5.03;3.30;;;;;;;;;;5070135;28;20180;-78
2022/11/07 02:55:48;;;;;;;5.33;3.27;;;;;;;;;;5069561;28;20197;-79
2022/11/07 02:58:14;;;;;;;3.60;3.00;;;;;;;;;;5071986;28;20215;-77
2022/11/07 03:00:40;;;;;;;3.40;2.87;;;;;;;;;;5068095;28;20270;-78
2022/11/07 03:03:07;;;;;;;4.37;3.03;;;;;;;;;;5062521;28;20193;-78
2022/11/07 03:05:33;;;;;;;4.43;3.33;;;;;;;;;;5065645;28;20578;-78
2022/11/07 03:07:59;;;;;;;6.70;3.23;;;;;;;;;;5067862;28;20525;-78
2022/11/07 03:10:25;;;;;;;4.33;3.00;;;;;;;;;;5068470;28;20744;-78
2022/11/07 03:12:51;;;;;;;4.03;3.03;;;;;;;;;;5068088;28;20239;-78
2022/11/07 03:15:18;;;;;;;3.73;2.97;;;;;;;;;;5051956;28;20497;-78
2022/11/07 03:17:44;;;;;;;4.67;3.07;;;;;;;;;;5065866;28;20186;-78
2022/11/07 03:20:10;;;;;;;6.23;3.47;;;;;;;;;;5073873;28;20586;-78
2022/11/07 03:22:36;;;;;;;4.43;3.00;;;;;;;;;;5088605;28;20215;-79
2022/11/07 03:25:03;;;;;;;3.60;2.80;;;;;;;;;;5068517;28;20215;-78
2022/11/07 03:27:29;;;;;;;3.63;2.60;;;;;;;;;;5084528;28;20687;-78
2022/11/07 03:29:55;;;;;;;4.00;2.83;;;;;;;;;;5069665;28;20173;-78
2022/11/07 03:32:22;;;;;;;3.40;2.90;;;;;;;;;;5069844;28;20226;-78
2022/11/07 03:34:48;;;;;;;4.27;2.90;;;;;;;;;;5072347;28;20197;-78
2022/11/07 03:37:14;;;;;;;3.67;2.67;;;;;;;;;;5076967;28;20921;-78
2022/11/07 03:39:40;;;;;;;4.20;2.87;;;;;;;;;;5084250;28;20692;-78
2022/11/07 03:42:06;;;;;;;7.67;2.80;;;;;;;;;;5067233;28;20186;-78
2022/11/07 03:44:33;;;;;;;3.83;2.67;;;;;;;;;;5067223;28;20196;-78
2022/11/07 03:46:59;;;;;;;4.53;2.87;;;;;;;;;;5066620;28;20216;-78
2022/11/07 03:49:25;;;;;;;4.57;2.87;;;;;;;;;;5069926;28;20283;-78
2022/11/07 03:51:52;;;;;;;3.77;2.40;;;;;;;;;;5070365;28;20173;-78
2022/11/07 03:54:18;;;;;;;4.53;2.63;;;;;;;;;;5069664;28;20212;-78
2022/11/07 03:56:44;;;;;;;6.47;3.10;;;;;;;;;;5045355;28;20177;-78
2022/11/07 03:59:10;;;;;;;4.40;2.90;;;;;;;;;;5067299;28;20193;-78
2022/11/07 04:01:36;;;;;;;4.93;3.10;;;;;;;;;;5067036;28;20204;-78
2022/11/07 04:04:02;;;;;;;4.23;2.83;;;;;;;;;;5082984;28;20211;-78
2022/11/07 04:06:28;;;;;;;4.37;2.80;;;;;;;;;;5071424;28;20195;-78
2022/11/07 04:08:54;;;;;;;4.43;2.90;;;;;;;;;;5071458;28;20185;-79
2022/11/07 04:19:35;;;;;;;4.47;2.77;;;;;;;;;;5074919;28;20234;-78
2022/11/07 04:22:01;;;;;;;6.90;2.80;;;;;;;;;;5077463;28;20192;-78
2022/11/07 04:24:28;;;;;;;4.07;2.70;;;;;;;;;;5072272;28;20202;-78
2022/11/07 04:29:39;;;;;;;17.43;14.13;;;;;;;;;;5067318;28;20252;-79
2022/11/07 04:32:05;;;;;;;6.03;3.97;;;;;;;;;;5072353;28;20185;-79
2022/11/07 04:34:32;;;;;;;4.57;3.10;;;;;;;;;;5080370;28;20204;-78
2022/11/07 04:36:58;;;;;;;5.00;2.80;;;;;;;;;;5084415;28;20177;-78
2022/11/07 04:39:24;;;;;;;3.47;2.50;;;;;;;;;;5071452;28;20221;-78
2022/11/07 04:41:50;;;;;;;4.53;2.90;;;;;;;;;;5061399;28;20702;-78
2022/11/07 04:44:16;;;;;;;4.77;2.50;;;;;;;;;;5069277;28;20283;-78
2022/11/07 04:46:42;;;;;;;5.80;2.67;;;;;;;;;;5072981;28;20259;-78
2022/11/07 04:49:09;;;;;;;4.90;2.60;;;;;;;;;;5078843;28;20226;-78
2022/11/07 04:51:41;;;;;;;3.77;2.40;;;;;;;;;;5071410;28;20226;-79
2022/11/07 04:54:10;;;;;;;6.00;2.80;;;;;;;;;;5058380;28;20682;-78
2022/11/07 04:56:36;;;;;;;6.20;2.60;;;;;;;;;;5066611;28;20272;-78
2022/11/07 04:59:02;;;;;;;5.37;2.47;;;;;;;;;;5073114;28;20184;-78
2022/11/07 05:01:29;;;;;;;4.93;2.80;;;;;;;;;;5075611;28;20272;-79
2022/11/07 05:03:55;;;;;;;4.83;2.30;;;;;;;;;;5049880;28;20741;-79
2022/11/07 05:06:22;;;;;;;4.27;2.60;;;;;;;;;;5059615;28;20260;-78
2022/11/07 05:08:48;;;;;;;3.88;2.30;;;;;;;;;;5067257;28;20437;-79
2022/11/07 05:11:14;;;;;;;4.23;2.60;;;;;;;;;;5066463;28;20264;-78
2022/11/07 05:13:41;;;;;;;3.23;2.67;;;;;;;;;;5048860;28;20653;-78
2022/11/07 05:16:17;;;;;;;2.87;2.20;;;;;;;;;;5056300;28;20181;-78
2022/11/07 05:18:43;;;;;;;4.93;2.50;;;;;;;;;;5075205;28;20185;-79
2022/11/07 05:21:10;;;;;;;7.00;2.30;;;;;;;;;;5072207;28;20176;-79
2022/11/07 05:23:36;;;;;;;5.40;2.47;;;;;;;;;;5056620;28;20201;-79
2022/11/07 05:26:02;;;;;;;5.47;2.40;;;;;;;;;;5067810;28;20185;-79
2022/11/07 05:28:29;;;;;;;4.63;2.57;;;;;;;;;;5085901;28;20192;-79
2022/11/07 05:31:00;;;;;;;2.67;2.03;;;;;;;;;;5068185;28;20648;-80
2022/11/07 05:33:26;;;;;;;4.43;2.30;;;;;;;;;;5081844;28;20167;-79
2022/11/07 05:35:52;;;;;;;3.77;2.30;;;;;;;;;;5074601;28;20200;-79
2022/11/07 05:38:19;;;;;;;4.30;2.30;;;;;;;;;;5067552;28;20185;-79
2022/11/07 05:40:45;;;;;;;7.80;2.47;;;;;;;;;;5065657;28;20180;-79
2022/11/07 05:43:12;;;;;;;3.30;2.40;;;;;;;;;;5075030;28;20180;-79
2022/11/07 05:45:40;;;;;;;4.47;2.50;;;;;;;;;;5065052;28;20828;-79
2022/11/07 05:48:07;;;;;;;3.40;2.33;;;;;;;;;;5067346;28;20576;-78
2022/11/07 05:50:33;;;;;;;5.27;2.37;;;;;;;;;;5065804;28;20285;-78
2022/11/07 05:52:59;;;;;;;4.20;2.60;;;;;;;;;;5067700;28;20767;-78
2022/11/07 05:55:26;;;;;;;4.57;2.23;;;;;;;;;;5061828;28;20292;-79
2022/11/07 05:57:52;;;;;;;4.03;2.07;;;;;;;;;;5059998;28;20180;-79
2022/11/07 06:00:18;;;;;;;4.10;2.17;;;;;;;;;;5067175;28;20260;-78
2022/11/07 06:02:45;;;;;;;3.63;2.13;;;;;;;;;;5069824;28;20256;-80
2022/11/07 06:05:11;;;;;;;4.43;2.30;;;;;;;;;;5074342;28;20209;-79
2022/11/07 06:07:38;;;;;;;4.70;2.37;;;;;;;;;;5066450;28;20182;-78
2022/11/07 06:10:05;;;;;;;4.43;2.40;;;;;;;;;;5070203;28;20975;-78
2022/11/07 06:12:31;;;;;;;5.27;2.43;;;;;;;;;;5068602;28;20751;-79
2022/11/07 06:14:58;;;;;;;3.80;2.30;;;;;;;;;;5067940;28;20192;-79
2022/11/07 06:17:24;;;;;;;4.03;2.43;;;;;;;;;;5070432;28;20185;-79
2022/11/07 06:19:50;;;;;;;5.80;2.50;;;;;;;;;;5070305;28;20177;-79
2022/11/07 06:22:16;;;;;;;4.80;2.47;;;;;;;;;;5078274;28;20177;-79
2022/11/07 06:24:42;;;;;;;4.70;2.50;;;;;;;;;;5070690;28;20235;-79
2022/11/07 06:27:08;;;;;;;4.20;2.73;;;;;;;;;;5071505;28;20315;-78
2022/11/07 06:29:34;;;;;;;6.03;2.30;;;;;;;;;;5077021;28;20184;-79
2022/11/07 06:32:01;;;;;;;5.67;2.50;;;;;;;;;;5069596;28;20213;-78
2022/11/07 06:34:27;;;;;;;7.10;2.90;;;;;;;;;;5068825;28;20706;-78
2022/11/07 06:36:54;;;;;;;6.00;2.40;;;;;;;;;;5070703;28;20302;-78
2022/11/07 06:39:20;;;;;;;4.60;2.43;;;;;;;;;;5072306;28;20206;-85
2022/11/07 06:41:47;;;;;;;5.37;2.40;;;;;;;;;;5078360;28;20238;-81
2022/11/07 06:44:14;;;;;;;5.73;2.60;;;;;;;;;;5070016;28;20197;-81
2022/11/07 06:46:40;;;;;;;4.30;2.40;;;;;;;;;;5054187;28;20235;-81
2022/11/07 06:49:06;;;;;;;5.40;2.50;;;;;;;;;;5046049;28;20185;-78
2022/11/07 06:51:32;;;;;;;2.60;2.10;;;;;;;;;;5063112;28;20481;-79
2022/11/07 06:53:59;;;;;;;8.40;2.70;;;;;;;;;;5067276;28;20279;-77
2022/11/07 06:56:25;;;;;;;4.53;2.20;;;;;;;;;;5061267;28;20248;-78
2022/11/07 06:58:51;;;;;;;5.57;2.30;;;;;;;;;;5081601;28;20175;-77
2022/11/07 07:01:17;;;;;;;4.90;2.50;;;;;;;;;;5073171;28;20212;-77
2022/11/07 07:03:43;;;;;;;5.23;2.50;;;;;;;;;;5075160;28;20189;-77
2022/11/07 07:06:12;;;;;;;4.93;2.30;;;;;;;;;;5071758;28;20189;-77
2022/11/07 07:08:38;;;;;;;4.27;2.57;;;;;;;;;;5060515;28;20671;-77
2022/11/07 07:11:06;;;;;;;3.37;2.10;;;;;;;;;;5059623;28;20193;-77
2022/11/07 07:13:32;;;;;;;4.07;2.10;;;;;;;;;;5066962;28;20177;-77
2022/11/07 07:15:58;;;;;;;6.80;2.47;;;;;;;;;;5059350;28;20254;-77
2022/11/07 07:18:25;;;;;;;5.00;2.00;;;;;;;;;;5069940;28;20197;-77
2022/11/07 07:20:52;;;;;;;6.53;2.50;;;;;;;;;;5073985;28;20204;-78
2022/11/07 07:23:18;;;;;;;4.23;2.10;;;;;;;;;;5071148;28;20185;-77
2022/11/07 07:25:45;;;;;;;4.73;2.33;;;;;;;;;;5067347;28;20205;-77
2022/11/07 07:28:11;;;;;;;4.93;2.43;;;;;;;;;;5059265;28;20232;-77
2022/11/07 07:30:37;;;;;;;4.03;2.27;;;;;;;;;;5058428;28;20212;-77
2022/11/07 07:33:03;;;;;;;6.97;2.80;;;;;;;;;;5059947;28;20437;-77
2022/11/07 07:35:29;;;;;;;3.70;2.00;;;;;;;;;;5059899;28;20209;-78
2022/11/07 07:37:56;;;;;;;6.97;2.70;;;;;;;;;;5063310;28;20222;-77
2022/11/07 07:40:22;;;;;;;4.13;2.00;;;;;;;;;;5066966;28;20250;-79
2022/11/07 07:42:49;;;;;;;4.80;2.20;;;;;;;;;;5056598;28;20185;-78
2022/11/07 07:45:15;;;;;;;6.37;2.67;;;;;;;;;;5058318;28;20660;-77
2022/11/07 07:47:41;;;;;;;4.50;2.50;;;;;;;;;;5056492;28;20317;-77
2022/11/07 07:50:09;;;;;;;4.00;2.23;;;;;;;;;;5063707;28;20197;-77
2022/11/07 07:52:35;;;;;;;5.80;2.20;;;;;;;;;;5064841;28;20559;-78
2022/11/07 07:55:01;;;;;;;5.40;2.43;;;;;;;;;;5060294;28;20220;-77
2022/11/07 07:57:27;;;;;;;4.43;2.30;;;;;;;;;;5056156;28;20178;-77
2022/11/07 07:59:53;;;;;;;4.93;2.30;;;;;;;;;;5055441;28;20207;-77
2022/11/07 08:02:20;;;;;;;4.40;2.17;;;;;;;;;;5059599;28;20213;-78
2022/11/07 08:04:51;;;;;;;4.73;2.20;;;;;;;;;;5054748;28;20209;-78
2022/11/07 08:07:17;;;;;;;6.20;2.80;;;;;;;;;;5058621;28;20197;-78
2022/11/07 08:09:43;;;;;;;7.13;2.40;;;;;;;;;;5055848;28;20183;-79
2022/11/07 08:12:09;;;;;;;5.00;2.50;;;;;;;;;;5074714;28;20181;-78
2022/11/07 08:14:35;;;;;;;3.53;2.20;;;;;;;;;;5075049;28;20475;-78
2022/11/07 08:17:02;;;;;;;6.10;3.00;;;;;;;;;;5073973;28;20216;-78
2022/11/07 08:19:28;;;;;;;7.07;3.00;;;;;;;;;;5076223;28;20189;-79
2022/11/07 08:21:54;;;;;;;8.20;2.90;;;;;;;;;;5071630;28;20180;-78
2022/11/07 08:24:21;;;;;;;8.03;2.57;;;;;;;;;;5068364;28;20235;-78
2022/11/07 08:26:47;;;;;;;4.13;2.20;;;;;;;;;;5067520;28;20322;-78
2022/11/07 08:29:13;;;;;;;6.87;2.30;;;;;;;;;;5064292;28;20192;-78
2022/11/07 08:31:39;;;;;;;4.90;2.70;;;;;;;;;;5075864;28;20174;-78
2022/11/07 08:34:05;;;;;;;6.80;3.27;;;;;;;;;;5071797;28;20215;-78
2022/11/07 08:36:31;;;;;;;6.60;2.80;;;;;;;;;;5077561;28;20176;-78
2022/11/07 08:38:58;;;;;;;5.90;2.70;;;;;;;;;;5067711;28;20256;-79
2022/11/07 08:41:24;;;;;;;4.23;2.50;;;;;;;;;;5074631;28;20185;-79
2022/11/07 08:43:50;;;;;;;6.13;2.43;;;;;;;;;;5075534;28;20181;-80
2022/11/07 08:46:16;;;;;;;5.37;2.53;;;;;;;;;;5071601;28;20197;-80
2022/11/07 08:48:43;;;;;;;4.73;2.10;;;;;;;;;;5069486;28;20228;-79
2022/11/07 08:51:09;;;;;;;6.63;2.50;;;;;;;;;;5070238;28;20804;-81
2022/11/07 08:53:35;;;;;;;5.80;2.30;;;;;;;;;;5048823;28;20274;-79
2022/11/07 08:56:08;;;;;;;4.17;2.30;;;;;;;;;;5064383;28;20197;-81
2022/11/07 08:58:35;;;;;;;7.97;2.40;;;;;;;;;;5065695;28;20185;-80
2022/11/07 09:01:04;;;;;;;5.53;2.50;;;;;;;;;;5061021;28;20181;-78
2022/11/07 09:03:31;;;;;;;5.13;2.43;;;;;;;;;;5056731;28;20754;-77
2022/11/07 09:05:57;;;;;;;4.37;2.50;;;;;;;;;;5060094;28;20684;-78
2022/11/07 09:08:23;;;;;;;9.53;2.50;;;;;;;;;;5065095;28;20254;-78
2022/11/07 09:10:49;;;;;;;7.47;2.70;;;;;;;;;;5064729;28;20262;-78
2022/11/07 09:13:15;;;;;;;7.17;2.63;;;;;;;;;;5076212;28;20182;-78
2022/11/07 09:15:41;;;;;;;5.70;2.33;;;;;;;;;;5073015;28;20617;-78
2022/11/07 09:18:07;;;;;;;4.87;2.30;;;;;;;;;;5072349;28;20194;-78
2022/11/07 09:20:34;;;;;;;5.43;2.80;;;;;;;;;;5069521;28;20835;-78
2022/11/07 09:23:00;;;;;;;5.37;2.17;;;;;;;;;;5043943;28;20196;-78
2022/11/07 09:25:26;;;;;;;4.97;2.40;;;;;;;;;;5071359;28;20210;-78
2022/11/07 09:27:53;;;;;;;6.87;2.40;;;;;;;;;;5066714;28;20247;-78
2022/11/07 09:30:19;;;;;;;6.27;2.40;;;;;;;;;;5069083;28;20256;-78
2022/11/07 09:32:46;;;;;;;5.20;2.30;;;;;;;;;;5062880;28;20181;-78
2022/11/07 09:35:13;;;;;;;8.60;2.60;;;;;;;;;;5080823;28;20208;-78
2022/11/07 09:37:39;;;;;;;4.83;2.33;;;;;;;;;;5070423;28;20648;-78
2022/11/07 09:40:12;;;;;;;5.43;2.30;;;;;;;;;;5058223;28;20880;-78
2022/11/07 09:42:46;;;;;;;5.50;2.77;;;;;;;;;;5046768;28;20265;-77
2022/11/07 09:45:12;;;;;;;5.57;2.30;;;;;;;;;;5064006;28;20205;-78
2022/11/07 09:47:53;;;;;;;6.80;2.47;;;;;;;;;;5069646;28;20192;-78
2022/11/07 09:50:25;;;;;;;5.10;2.67;;;;;;;;;;5068945;28;20656;-77
2022/11/07 09:52:54;;;;;;;6.00;2.50;;;;;;;;;;5080116;28;20185;-77
2022/11/07 09:55:29;;;;;;;5.83;2.40;;;;;;;;;;5090512;28;20200;-78
2022/11/07 09:57:59;;;;;;;6.77;2.20;;;;;;;;;;5073024;28;20188;-78
2022/11/07 10:00:28;;;;;;;6.20;2.30;;;;;;;;;;5074792;28;20225;-77
2022/11/07 10:02:56;;;;;;;8.60;3.50;;;;;;;;;;5072160;28;20196;-78
2022/11/07 10:05:34;;;;;;;6.03;2.67;;;;;;;;;;5083125;28;20209;-79
2022/11/07 10:08:00;;;;;;;7.10;2.13;;;;;;;;;;5067973;28;20668;-78
2022/11/07 10:11:02;;;;;;;5.63;2.37;;;;;;;;;;5074076;28;20176;-78
2022/11/07 10:13:52;;;;;;;5.80;2.30;;;;;;;;;;4995180;28;20205;-78
2022/11/07 10:16:18;;;;;;;6.07;2.40;;;;;;;;;;5049118;28;20683;-79
2022/11/07 10:18:47;;;;;;;5.33;1.93;;;;;;;;;;5060284;28;20228;-79
2022/11/07 10:21:13;;;;;;;5.27;2.47;;;;;;;;;;5070695;28;20186;-78
2022/11/07 10:23:51;;;;;;;4.73;1.90;;;;;;;;;;5064021;28;20194;-80
2022/11/07 10:26:19;;;;;;;6.47;2.10;;;;;;;;;;5074345;28;20183;-79
2022/11/07 10:28:55;;;;;;;6.20;2.20;;;;;;;;;;5087914;28;20215;-77
2022/11/07 10:31:21;;;;;;;7.83;2.30;;;;;;;;;;5070272;28;20557;-77
2022/11/07 10:33:55;;;;;;;8.07;2.37;;;;;;;;;;5060479;28;20196;-77
2022/11/07 10:36:23;;;;;;;6.07;2.30;;;;;;;;;;5078588;28;20282;-77
2022/11/07 10:38:49;;;;;;;4.37;1.93;;;;;;;;;;5089410;28;20187;-77
2022/11/07 10:41:17;;;;;;;4.80;2.10;;;;;;;;;;5060587;28;20820;-77
2022/11/07 10:43:45;;;;;;;4.13;2.23;;;;;;;;;;5071480;28;20185;-77
2022/11/07 10:46:17;;;;;;;5.57;2.17;;;;;;;;;;5069996;28;20206;-77
2022/11/07 10:48:53;;;;;;;6.70;2.13;;;;;;;;;;5068754;28;20200;-78
2022/11/07 10:51:19;;;;;;;8.43;2.30;;;;;;;;;;5078740;28;20173;-79
2022/11/07 10:53:45;;;;;;;4.93;2.17;;;;;;;;;;5072070;28;20198;-79
2022/11/07 10:56:14;;;;;;;8.17;2.33;;;;;;;;;;5069249;28;20613;-77
2022/11/07 10:58:44;;;;;;;7.90;2.23;;;;;;;;;;5071903;28;20611;-78
2022/11/07 11:01:11;;;;;;;8.47;2.40;;;;;;;;;;5069161;28;20241;-78
2022/11/07 11:03:39;;;;;;;4.60;2.07;;;;;;;;;;5076101;28;20207;-77
2022/11/07 11:06:18;;;;;;;6.70;2.47;;;;;;;;;;5088865;28;20205;-77
2022/11/07 11:08:45;;;;;;;6.60;2.33;;;;;;;;;;5074877;28;20270;-77
2022/11/07 11:11:16;;;;;;;5.00;2.00;;;;;;;;;;5069577;28;20189;-77
2022/11/07 11:13:42;;;;;;;4.77;1.90;;;;;;;;;;5072906;28;20169;-77
2022/11/07 11:16:20;;;;;;;8.33;2.60;;;;;;;;;;5088867;28;20165;-78
2022/11/07 11:18:50;;;;;;;5.50;2.10;;;;;;;;;;5085936;28;20181;-77
2022/11/07 11:21:16;;;;;;;5.97;1.90;;;;;;;;;;5068094;28;20272;-78
2022/11/07 11:23:43;;;;;;;6.20;2.07;;;;;;;;;;5070319;28;20177;-78
2022/11/07 11:26:30;;;;;;;4.67;2.33;;;;;;;;;;5097225;28;20192;-78
2022/11/07 11:29:08;;;;;;;3.93;1.60;;;;;;;;;;5077102;28;20239;-78
2022/11/07 11:31:36;;;;;;;9.43;2.07;;;;;;;;;;5058628;28;20204;-77
2022/11/07 11:34:20;;;;;;;9.90;2.20;;;;;;;;;;5071258;28;20204;-80
2022/11/07 11:36:51;;;;;;;8.00;2.30;;;;;;;;;;5083657;28;20847;-78
2022/11/07 11:39:37;;;;;;;5.47;2.13;;;;;;;;;;5063149;28;20267;-80
2022/11/07 11:42:04;;;;;;;5.10;2.20;;;;;;;;;;5071550;28;20178;-78
2022/11/07 11:44:42;;;;;;;8.00;2.50;;;;;;;;;;5070182;28;20201;-79
2022/11/07 11:47:26;;;;;;;5.40;2.10;;;;;;;;;;5063277;28;20232;-77
2022/11/07 11:49:54;;;;;;;5.30;2.20;;;;;;;;;;5079211;28;20168;-79
2022/11/07 11:52:22;;;;;;;4.53;2.00;;;;;;;;;;5075834;28;20181;-77
2022/11/07 11:54:50;;;;;;;4.60;1.90;;;;;;;;;;5068725;28;20193;-79
2022/11/07 11:57:35;;;;;;;4.93;2.13;;;;;;;;;;5049673;28;20189;-77
2022/11/07 12:00:09;;;;;;;8.13;2.73;;;;;;;;;;5085044;28;20181;-77
2022/11/07 12:02:38;;;;;;;4.80;1.70;;;;;;;;;;5071649;28;20196;-76
2022/11/07 12:05:26;;;;;;;4.67;2.03;;;;;;;;;;5072513;28;20699;-76
2022/11/07 12:07:55;;;;;;;5.87;1.80;;;;;;;;;;5063450;28;20205;-76
2022/11/07 12:10:27;;;;;;;5.83;2.10;;;;;;;;;;5066561;28;20181;-76
2022/11/07 12:12:58;;;;;;;5.63;2.00;;;;;;;;;;5066631;28;20182;-76
2022/11/07 12:15:49;;;;;;;4.30;1.83;;;;;;;;;;5066400;28;20206;-75
2022/11/07 12:18:25;;;;;;;3.37;2.10;;;;;;;;;;5069444;28;20696;-77
2022/11/07 12:20:51;;;;;;;2.67;1.90;;;;;;;;;;5064455;28;20215;-76
2022/11/07 12:23:35;;;;;;;5.07;2.07;;;;;;;;;;5068251;28;20639;-76
2022/11/07 12:26:03;;;;;;;5.53;2.00;;;;;;;;;;5067194;28;20185;-77
2022/11/07 12:28:34;;;;;;;3.53;1.70;;;;;;;;;;5077996;28;20300;-78
2022/11/07 12:31:13;;;;;;;6.30;2.13;;;;;;;;;;5074451;28;20703;-77
2022/11/07 12:33:57;;;;;;;4.47;1.90;;;;;;;;;;5055060;28;20185;-76
2022/11/07 12:36:44;;;;;;;7.30;2.00;;;;;;;;;;5069759;28;20243;-78
2022/11/07 12:39:18;;;;;;;4.57;1.87;;;;;;;;;;5064476;28;20192;-77
2022/11/07 12:41:47;;;;;;;5.77;2.03;;;;;;;;;;5068751;28;20208;-77
2022/11/07 12:44:30;;;;;;;6.57;2.30;;;;;;;;;;5084320;28;20239;-77
2022/11/07 12:46:58;;;;;;;4.93;1.90;;;;;;;;;;5066267;28;20200;-77
2022/11/07 12:49:43;;;;;;;4.87;1.90;;;;;;;;;;5081378;28;20824;-77
2022/11/07 12:52:17;;;;;;;7.80;3.23;;;;;;;;;;5065867;28;20230;-77
2022/11/07 12:54:53;;;;;;;5.20;2.17;;;;;;;;;;5056981;28;20599;-77
2022/11/07 12:57:23;;;;;;;8.77;1.90;;;;;;;;;;5079736;28;20184;-77
2022/11/07 12:59:52;;;;;;;6.50;1.90;;;;;;;;;;5066659;28;20215;-77
2022/11/07 13:02:26;;;;;;;5.30;2.07;;;;;;;;;;5065997;28;20188;-77
2022/11/07 13:04:52;;;;;;;4.10;1.93;;;;;;;;;;5069089;28;20205;-77
2022/11/07 13:07:21;;;;;;;5.70;2.20;;;;;;;;;;5072457;28;20207;-78
2022/11/07 13:09:54;;;;;;;6.23;1.80;;;;;;;;;;5065432;28;20232;-77
2022/11/07 13:12:20;;;;;;;6.43;2.30;;;;;;;;;;5068555;28;20172;-77
2022/11/07 13:14:47;;;;;;;6.70;2.60;;;;;;;;;;5072656;28;20739;-77
2022/11/07 13:17:23;;;;;;;7.83;2.17;;;;;;;;;;5075235;28;20682;-77
2022/11/07 13:19:59;;;;;;;6.53;2.40;;;;;;;;;;5067528;28;20706;-77
2022/11/07 13:22:32;;;;;;;7.10;2.50;;;;;;;;;;5079885;28;20189;-77
2022/11/07 13:25:04;;;;;;;11.07;2.47;;;;;;;;;;5079131;28;20574;-77
2022/11/07 13:27:35;;;;;;;3.97;2.17;;;;;;;;;;5065449;28;20200;-77
2022/11/07 13:30:13;;;;;;;4.90;2.53;;;;;;;;;;5064392;28;20794;-77
2022/11/07 13:32:40;;;;;;;6.83;2.30;;;;;;;;;;5082878;28;20176;-77
2022/11/07 13:35:07;;;;;;;6.10;2.27;;;;;;;;;;5075473;28;20225;-77
2022/11/07 13:37:36;;;;;;;5.40;2.33;;;;;;;;;;5070643;28;20189;-77
2022/11/07 13:40:21;;;;;;;5.70;1.90;;;;;;;;;;5075793;28;20192;-77
2022/11/07 13:42:48;;;;;;;5.70;2.07;;;;;;;;;;5067934;28;20189;-77
2022/11/07 13:45:23;;;;;;;4.97;1.97;;;;;;;;;;5069592;28;20225;-77
2022/11/07 13:47:51;;;;;;;5.67;2.10;;;;;;;;;;5077362;28;20207;-77
2022/11/07 13:50:20;;;;;;;7.17;2.60;;;;;;;;;;5085484;28;20670;-77
2022/11/07 13:52:54;;;;;;;4.67;2.10;;;;;;;;;;5067819;28;20192;-76
2022/11/07 13:55:23;;;;;;;4.83;2.07;;;;;;;;;;5080435;28;20598;-77
2022/11/07 13:58:00;;;;;;;5.80;2.20;;;;;;;;;;5072269;28;20699;-77
2022/11/07 14:00:27;;;;;;;6.73;2.27;;;;;;;;;;5070661;28;20772;-77
2022/11/07 14:02:55;;;;;;;6.63;2.40;;;;;;;;;;5064522;28;20185;-77
2022/11/07 14:05:28;;;;;;;7.63;2.23;;;;;;;;;;5064448;28;20284;-77
2022/11/07 14:07:59;;;;;;;6.07;2.40;;;;;;;;;;5062487;28;20201;-77
2022/11/07 14:10:25;;;;;;;7.03;2.30;;;;;;;;;;5067438;28;20230;-76
2022/11/07 14:13:09;;;;;;;5.97;2.30;;;;;;;;;;5069712;28;20187;-77
2022/11/07 14:15:42;;;;;;;6.67;2.30;;;;;;;;;;5064790;28;20204;-77
2022/11/07 14:18:12;;;;;;;6.53;2.00;;;;;;;;;;5068170;28;20199;-77
2022/11/07 14:20:38;;;;;;;5.97;2.17;;;;;;;;;;5065782;28;20184;-77
2022/11/07 14:23:11;;;;;;;7.67;2.27;;;;;;;;;;5065651;28;20189;-77
2022/11/07 14:25:37;;;;;;;7.47;2.40;;;;;;;;;;5067509;28;20209;-77
2022/11/07 14:28:06;;;;;;;7.00;2.03;;;;;;;;;;5081574;28;20208;-77
2022/11/07 14:30:32;;;;;;;6.00;2.20;;;;;;;;;;5076969;28;20219;-77
2022/11/07 14:32:59;;;;;;;6.40;2.10;;;;;;;;;;5069349;28;20186;-76
2022/11/07 14:35:27;;;;;;;6.80;2.10;;;;;;;;;;5076299;28;20311;-77
2022/11/07 14:37:54;;;;;;;5.33;2.10;;;;;;;;;;5074447;28;20719;-77
2022/11/07 14:40:21;;;;;;;4.07;1.90;;;;;;;;;;5069509;28;20662;-77
2022/11/07 14:42:47;;;;;;;6.20;1.97;;;;;;;;;;5066965;28;20188;-77
2022/11/07 14:45:15;;;;;;;8.67;2.03;;;;;;;;;;5084709;28;20207;-76
2022/11/07 14:47:43;;;;;;;4.97;2.27;;;;;;;;;;5082583;28;20229;-76
2022/11/07 14:50:20;;;;;;;5.53;2.20;;;;;;;;;;5070722;28;20181;-77
2022/11/07 14:52:47;;;;;;;6.57;2.43;;;;;;;;;;5074618;28;20185;-77
2022/11/07 14:55:27;;;;;;;5.63;2.20;;;;;;;;;;5071626;28;20201;-76
2022/11/07 14:57:53;;;;;;;4.93;2.00;;;;;;;;;;5053822;28;20241;-76
2022/11/07 15:00:20;;;;;;;5.13;2.20;;;;;;;;;;5069866;28;20249;-76
2022/11/07 15:02:48;;;;;;;3.50;1.83;;;;;;;;;;5073318;28;20231;-77
2022/11/07 15:05:40;;;;;;;5.87;2.57;;;;;;;;;;5080651;28;20200;-77